Time;durP1;ratioP1;P1;durP2;ratioP2;P2;SDS_P1;SDS_P2;PMS_P1;PMS_P2;Temp;Humidity;BMP_temperature;BMP_pressure;BME280_temperature;BME280_humidity;BME280_pressure;Samples;Min_cycle;Max_cycle;Signal;HPM_P1;HPM_P2
2023/05/21 00:00:23;;;;;;;6.90;3.40;;;;;;;;;;5010649;28;20049;-72
2023/05/21 00:02:50;;;;;;;5.30;3.00;;;;;;;;;;5010946;28;20099;-74
2023/05/21 00:05:17;;;;;;;7.57;3.28;;;;;;;;;;4992034;28;20049;-72
2023/05/21 00:07:44;;;;;;;6.75;3.17;;;13.30;94.90;;;;;;4993315;28;20050;-74
2023/05/21 00:10:10;;;;;;;6.20;3.20;;;;;;;;;;5010209;28;20084;-72
2023/05/21 00:12:36;;;;;;;8.43;3.72;;;;;;;;;;4999792;28;20843;-73
2023/05/21 00:15:03;;;;;;;6.18;2.65;;;;;;;;;;4993262;28;20730;-72
2023/05/21 00:17:29;;;;;;;6.22;2.83;;;;;;;;;;5001645;28;20061;-72
2023/05/21 00:19:55;;;;;;;4.82;2.42;;;;;;;;;;4998554;28;20495;-72
2023/05/21 00:22:22;;;;;;;6.70;3.22;;;;;;;;;;4995463;28;21031;-72
2023/05/21 00:24:48;;;;;;;6.47;2.70;;;;;;;;;;4989131;28;20061;-71
2023/05/21 00:27:15;;;;;;;7.57;3.50;;;;;;;;;;4997827;28;20129;-71
2023/05/21 00:29:41;;;;;;;5.40;2.50;;;;;;;;;;5009551;28;20061;-73
2023/05/21 00:32:07;;;;;;;6.90;3.08;;;;;;;;;;4986776;28;20058;-72
2023/05/21 00:34:33;;;;;;;5.97;2.80;;;;;;;;;;5007647;28;20400;-71
2023/05/21 00:37:01;;;;;;;7.82;2.85;;;;;;;;;;5009723;28;20128;-71
2023/05/21 00:39:27;;;;;;;4.90;2.78;;;;;;;;;;5013853;28;20372;-70
2023/05/21 00:41:55;;;;;;;6.32;3.00;;;;;;;;;;5010293;28;20043;-72
2023/05/21 00:44:22;;;;;;;5.80;3.30;;;;;;;;;;5000683;28;20137;-73
2023/05/21 00:46:52;;;;;;;4.30;2.70;;;;;;;;;;5004695;28;20050;-72
2023/05/21 00:49:18;;;;;;;8.65;3.92;;;;;;;;;;5009679;28;20057;-73
2023/05/21 00:51:45;;;;;;;6.72;3.35;;;;;;;;;;5007570;28;20358;-70
2023/05/21 00:54:11;;;;;;;9.63;4.45;;;;;;;;;;5013097;28;20111;-72
2023/05/21 00:56:38;;;;;;;8.25;3.28;;;;;;;;;;5000666;28;20053;-72
2023/05/21 00:59:04;;;;;;;5.53;3.30;;;;;;;;;;4996232;28;20045;-73
2023/05/21 01:01:35;;;;;;;7.35;2.75;;;;;;;;;;5013547;28;20803;-70
2023/05/21 01:04:01;;;;;;;5.93;2.70;;;;;;;;;;5006862;28;20130;-70
2023/05/21 01:06:28;;;;;;;6.05;2.95;;;;;;;;;;4984635;28;20092;-71
2023/05/21 01:08:58;;;;;;;5.03;3.13;;;;;;;;;;4994937;28;20041;-71
2023/05/21 01:11:44;;;;;;;6.15;3.33;;;;;;;;;;4994858;28;20138;-72
2023/05/21 01:14:11;;;;;;;8.85;3.65;;;;;;;;;;5008918;28;20046;-71
2023/05/21 01:16:39;;;;;;;5.00;3.20;;;;;;;;;;5009970;28;20064;-72
2023/05/21 01:19:06;;;;;;;7.05;3.30;;;;;;;;;;4996533;28;20065;-72
2023/05/21 01:21:36;;;;;;;6.72;3.58;;;;;;;;;;5000281;28;20128;-71
2023/05/21 01:24:04;;;;;;;6.63;3.83;;;;;;;;;;5006284;28;20084;-72
2023/05/21 01:26:32;;;;;;;7.53;4.47;;;;;;;;;;4987937;28;20136;-72
2023/05/21 01:28:58;;;;;;;8.15;4.13;;;;;;;;;;5003126;28;20238;-70
2023/05/21 01:31:30;;;;;;;7.20;3.33;;;;;;;;;;5012800;28;20056;-71
2023/05/21 01:33:57;;;;;;;8.90;3.47;;;;;;;;;;4986967;28;20076;-67
2023/05/21 01:36:25;;;;;;;8.52;3.35;;;;;;;;;;5011553;28;20111;-70
2023/05/21 01:39:03;;;;;;;7.05;3.63;;;;;;;;;;5010233;28;20713;-72
2023/05/21 01:41:32;;;;;;;8.10;3.88;;;;;;;;;;5002076;28;20045;-73
2023/05/21 01:43:59;;;;;;;6.50;3.38;;;;;;;;;;5000475;28;20784;-70
2023/05/21 01:46:27;;;;;;;8.82;4.15;;;;;;;;;;5003926;28;20060;-72
2023/05/21 01:48:54;;;;;;;8.32;4.22;;;;;;;;;;4985152;28;20051;-71
2023/05/21 01:51:21;;;;;;;6.88;4.15;;;;;;;;;;5012431;28;20049;-70
2023/05/21 01:53:47;;;;;;;8.88;3.83;;;;;;;;;;5012946;28;20045;-71
2023/05/21 01:56:14;;;;;;;6.78;3.72;;;;;;;;;;5007134;28;20049;-72
2023/05/21 01:58:40;;;;;;;6.50;3.95;;;;;;;;;;5003574;28;20053;-75
2023/05/21 02:01:07;;;;;;;7.97;4.35;;;;;;;;;;5004550;28;20212;-71
2023/05/21 02:03:33;;;;;;;9.30;4.20;;;;;;;;;;5010581;28;20163;-70
2023/05/21 02:05:59;;;;;;;9.10;3.63;;;;;;;;;;4992993;28;20521;-72
2023/05/21 02:08:26;;;;;;;7.38;3.85;;;;;;;;;;5009015;28;20041;-72
2023/05/21 02:10:52;;;;;;;5.85;3.92;;;;;;;;;;4995472;28;20110;-72
2023/05/21 02:13:23;;;;;;;10.57;5.53;;;;;;;;;;5007696;28;20111;-72
2023/05/21 02:15:53;;;;;;;7.57;5.90;;;;;;;;;;4992240;28;20049;-70
2023/05/21 02:18:20;;;;;;;11.55;4.60;;;;;;;;;;5004942;28;20940;-73
2023/05/21 02:20:46;;;;;;;9.23;4.40;;;;;;;;;;5010710;28;20045;-70
2023/05/21 02:23:12;;;;;;;8.48;4.25;;;;;;;;;;5007925;28;20720;-71
2023/05/21 02:25:38;;;;;;;6.38;4.28;;;;;;;;;;5006874;28;20071;-70
2023/05/21 02:28:05;;;;;;;7.60;3.90;;;;;;;;;;5006318;28;20107;-72
2023/05/21 02:30:31;;;;;;;7.70;5.20;;;;;;;;;;5008346;28;20064;-70
2023/05/21 02:32:57;;;;;;;8.27;4.03;;;;;;;;;;4996407;28;20059;-70
2023/05/21 02:35:24;;;;;;;6.95;4.32;;;;;;;;;;4996002;28;20186;-70
2023/05/21 02:37:50;;;;;;;7.90;4.07;;;;;;;;;;4996349;28;20053;-72
2023/05/21 02:40:16;;;;;;;6.43;4.15;;;;;;;;;;5011013;28;20119;-71
2023/05/21 02:42:42;;;;;;;9.18;4.88;;;;;;;;;;4995447;28;20046;-70
2023/05/21 02:45:09;;;;;;;7.45;4.30;;;13.10;96.40;;;;;;5011385;28;20303;-71
2023/05/21 02:47:37;;;;;;;6.63;4.70;;;;;;;;;;5012264;28;20053;-73
2023/05/21 02:50:07;;;;;;;9.27;3.83;;;13.00;96.60;;;;;;4995715;28;20042;-72
2023/05/21 02:52:33;;;;;;;9.48;4.30;;;;;;;;;;4998778;28;20049;-71
2023/05/21 02:54:59;;;;;;;7.78;4.20;;;;;;;;;;5009657;28;20101;-70
2023/05/21 02:57:25;;;;;;;10.65;5.05;;;;;;;;;;5009394;28;20098;-72
2023/05/21 02:59:51;;;;;;;6.53;4.25;;;;;;;;;;4982571;28;20045;-70
2023/05/21 03:02:17;;;;;;;5.55;3.58;;;;;;;;;;5004126;28;20398;-71
2023/05/21 03:04:46;;;;;;;12.32;3.83;;;;;;;;;;5012227;28;20151;-71
2023/05/21 03:07:13;;;;;;;8.07;3.97;;;13.00;96.90;;;;;;5011036;28;20080;-68
2023/05/21 03:09:40;;;;;;;11.55;4.30;;;13.00;97.00;;;;;;5010225;28;20122;-69
2023/05/21 03:12:07;;;;;;;6.40;4.20;;;12.90;96.80;;;;;;5012094;28;20064;-72
2023/05/21 03:14:34;;;;;;;9.77;4.38;;;;;;;;;;5011227;28;20071;-69
2023/05/21 03:17:02;;;;;;;8.45;3.58;;;;;;;;;;5012153;28;20430;-72
2023/05/21 03:19:30;;;;;;;8.50;3.42;;;;;;;;;;4994774;28;20135;-72
2023/05/21 03:21:56;;;;;;;5.95;3.67;;;;;;;;;;5008353;28;20053;-70
2023/05/21 03:24:22;;;;;;;7.03;3.50;;;;;;;;;;5006664;28;20175;-70
2023/05/21 03:26:49;;;;;;;6.35;3.30;;;;;;;;;;5011590;28;20053;-71
2023/05/21 03:29:15;;;;;;;8.75;3.40;;;;;;;;;;4992023;28;20163;-70
2023/05/21 03:31:41;;;;;;;8.02;3.38;;;;;;;;;;5004810;28;20053;-72
2023/05/21 03:34:07;;;;;;;8.25;4.88;;;;;;;;;;5009630;28;20049;-71
2023/05/21 03:36:33;;;;;;;8.65;3.92;;;;;;;;;;5011362;28;20053;-71
2023/05/21 03:39:00;;;;;;;8.80;2.90;;;;;;;;;;5010022;28;20148;-71
2023/05/21 03:41:26;;;;;;;8.63;3.30;;;;;;;;;;5010366;28;20049;-69
2023/05/21 03:43:52;;;;;;;5.68;3.10;;;;;;;;;;5003566;28;20049;-72
2023/05/21 03:46:18;;;;;;;6.50;2.97;;;;;;;;;;5012216;28;20071;-72
2023/05/21 03:48:44;;;;;;;9.32;4.13;;;;;;;;;;5010907;28;20061;-72
2023/05/21 03:51:12;;;;;;;10.68;3.97;;;;;;;;;;4987150;28;20107;-71
2023/05/21 03:53:38;;;;;;;8.35;4.15;;;;;;;;;;5007262;28;20082;-68
2023/05/21 03:56:04;;;;;;;6.32;3.47;;;;;;;;;;5007774;28;20057;-71
2023/05/21 03:58:31;;;;;;;7.13;3.25;;;;;;;;;;5006687;28;20258;-67
2023/05/21 04:00:57;;;;;;;11.40;4.00;;;;;;;;;;5004831;28;20326;-67
2023/05/21 04:03:24;;;;;;;8.38;4.35;;;;;;;;;;5009690;28;20129;-72
2023/05/21 04:05:50;;;;;;;8.93;4.05;;;;;;;;;;5011193;28;20395;-70
2023/05/21 04:08:16;;;;;;;9.98;3.97;;;;;;;;;;5013883;28;20477;-72
2023/05/21 04:10:42;;;;;;;8.38;3.95;;;;;;;;;;4998184;28;20053;-74
2023/05/21 04:13:08;;;;;;;9.93;5.10;;;;;;;;;;5008256;28;20410;-73
2023/05/21 04:15:34;;;;;;;8.52;4.47;;;;;;;;;;5005789;28;20057;-71
2023/05/21 04:18:00;;;;;;;9.63;5.00;;;;;;;;;;5008631;28;20052;-72
2023/05/21 04:20:26;;;;;;;7.63;3.97;;;;;;;;;;4999469;28;20045;-73
2023/05/21 04:22:53;;;;;;;7.63;3.85;;;;;;;;;;4993759;28;20810;-73
2023/05/21 04:25:21;;;;;;;6.53;3.88;;;;;;;;;;5015329;28;20061;-71
2023/05/21 04:27:48;;;;;;;8.25;4.57;;;;;;;;;;4991085;28;20107;-72
2023/05/21 04:30:15;;;;;;;9.35;4.47;;;;;;;;;;5012801;28;20075;-72
2023/05/21 04:32:44;;;;;;;11.75;4.60;;;;;;;;;;4997124;28;20867;-75
2023/05/21 04:35:14;;;;;;;7.55;4.10;;;;;;;;;;5012410;28;20625;-70
2023/05/21 04:37:41;;;;;;;8.60;4.53;;;;;;;;;;5014437;28;20045;-72
2023/05/21 04:40:08;;;;;;;7.20;3.35;;;12.70;96.90;;;;;;5014002;28;20792;-73
2023/05/21 04:42:34;;;;;;;8.50;3.95;;;;;;;;;;4994379;28;20057;-71
2023/05/21 04:45:01;;;;;;;9.05;4.75;;;;;;;;;;5011818;28;20056;-72
2023/05/21 04:47:34;;;;;;;10.57;4.57;;;;;;;;;;5012128;28;20584;-73
2023/05/21 04:50:00;;;;;;;6.40;3.47;;;;;;;;;;5014552;28;20057;-71
2023/05/21 04:52:26;;;;;;;8.77;3.83;;;;;;;;;;4991000;28;20081;-71
2023/05/21 04:54:53;;;;;;;7.07;4.40;;;;;;;;;;5014067;28;20049;-72
2023/05/21 04:57:20;;;;;;;9.95;3.22;;;;;;;;;;5009162;28;20117;-70
2023/05/21 04:59:48;;;;;;;5.03;3.15;;;;;;;;;;4984517;28;20133;-71
2023/05/21 05:02:14;;;;;;;7.70;3.13;;;;;;;;;;5014665;28;20796;-69
2023/05/21 05:04:40;;;;;;;7.97;3.28;;;;;;;;;;5014336;28;20057;-72
2023/05/21 05:07:06;;;;;;;7.53;3.28;;;;;;;;;;5014532;28;20137;-71
2023/05/21 05:09:32;;;;;;;9.10;2.80;;;;;;;;;;5008879;28;20529;-73
2023/05/21 05:11:58;;;;;;;6.00;3.13;;;;;;;;;;5014226;28;20156;-70
2023/05/21 05:14:25;;;;;;;6.72;3.33;;;;;;;;;;5005584;28;20598;-71
2023/05/21 05:16:51;;;;;;;10.30;4.13;;;;;;;;;;5011450;28;20048;-68
2023/05/21 05:19:17;;;;;;;6.78;3.50;;;;;;;;;;5004667;28;20041;-72
2023/05/21 05:21:43;;;;;;;6.47;3.25;;;;;;;;;;5002851;28;20053;-72
2023/05/21 05:24:09;;;;;;;5.38;2.72;;;;;;;;;;5010443;28;20493;-72
2023/05/21 05:26:35;;;;;;;7.50;3.20;;;;;;;;;;5006242;28;20058;-71
2023/05/21 05:29:01;;;;;;;5.53;3.20;;;;;;;;;;5007666;28;20049;-71
2023/05/21 05:31:27;;;;;;;7.47;3.30;;;;;;;;;;5014016;28;20072;-72
2023/05/21 05:33:53;;;;;;;7.50;3.17;;;;;;;;;;5012862;28;20676;-70
2023/05/21 05:36:20;;;;;;;7.78;3.10;;;;;;;;;;5002944;28;20042;-72
2023/05/21 05:38:46;;;;;;;8.82;3.17;;;;;;;;;;5012905;28;20038;-69
2023/05/21 05:41:12;;;;;;;6.20;2.70;;;;;;;;;;5008475;28;20534;-71
2023/05/21 05:43:38;;;;;;;9.40;2.92;;;;;;;;;;5010846;28;20052;-74
2023/05/21 05:46:04;;;;;;;5.13;3.15;;;;;;;;;;5005433;28;20063;-74
2023/05/21 05:48:30;;;;;;;5.95;2.85;;;;;;;;;;5012181;28;20050;-71
2023/05/21 05:50:56;;;;;;;6.53;3.03;;;;;;;;;;4992735;28;20377;-72
2023/05/21 05:53:22;;;;;;;6.53;2.63;;;;;;;;;;5009563;28;20045;-69
2023/05/21 05:55:48;;;;;;;8.57;2.60;;;;;;;;;;4988321;28;20115;-71
2023/05/21 05:58:15;;;;;;;6.38;2.40;;;;;;;;;;5006089;28;20053;-71
2023/05/21 06:00:41;;;;;;;5.93;2.83;;;;;;;;;;5010231;28;20115;-72
2023/05/21 06:03:07;;;;;;;6.32;2.45;;;;;;;;;;5005726;28;20099;-72
2023/05/21 06:05:33;;;;;;;10.60;2.65;;;;;;;;;;4987529;28;20739;-72
2023/05/21 06:08:00;;;;;;;7.75;3.10;;;;;;;;;;5004285;28;20590;-73
2023/05/21 06:10:26;;;;;;;6.70;2.50;;;;;;;;;;5003902;28;20048;-73
2023/05/21 06:12:52;;;;;;;6.07;2.63;;;;;;;;;;4998232;28;20058;-73
2023/05/21 06:15:18;;;;;;;3.47;2.15;;;;;;;;;;5003231;28;20064;-71
2023/05/21 06:17:44;;;;;;;9.80;2.35;;;;;;;;;;5004310;28;20045;-69
2023/05/21 06:20:11;;;;;;;5.57;2.50;;;;;;;;;;5005410;28;20432;-71
2023/05/21 06:22:37;;;;;;;8.18;2.83;;;;;;;;;;4988292;28;20069;-73
2023/05/21 06:25:03;;;;;;;6.72;2.08;;;15.70;92.70;;;;;;5005637;28;20057;-72
2023/05/21 06:27:30;;;;;;;4.68;2.08;;;;;;;;;;5005895;28;20083;-73
2023/05/21 06:29:57;;;;;;;3.78;2.22;;;;;;;;;;5008124;28;20153;-70
2023/05/21 06:32:24;;;;;;;5.85;2.15;;;16.30;92.10;;;;;;5010904;28;20683;-70
2023/05/21 06:34:50;;;;;;;6.88;2.60;;;;;;;;;;5008804;28;20041;-73
2023/05/21 06:37:20;;;;;;;6.55;2.50;;;16.30;91.40;;;;;;5007771;28;20077;-73
2023/05/21 06:39:46;;;;;;;6.47;3.10;;;;;;;;;;5005652;28;20053;-70
2023/05/21 06:42:13;;;;;;;10.75;3.17;;;;;;;;;;4986364;28;20061;-70
2023/05/21 06:44:39;;;;;;;8.45;2.40;;;;;;;;;;5003547;28;20046;-71
2023/05/21 06:47:05;;;;;;;5.78;2.75;;;;;;;;;;5008385;28;20134;-74
2023/05/21 06:49:31;;;;;;;5.45;2.40;;;;;;;;;;5004633;28;20076;-72
2023/05/21 06:51:58;;;;;;;5.97;2.22;;;;;;;;;;5010215;28;20057;-71
2023/05/21 06:54:24;;;;;;;4.72;2.33;;;;;;;;;;5006224;28;20053;-73
2023/05/21 06:56:50;;;;;;;4.20;1.95;;;;;;;;;;4990870;28;20053;-72
2023/05/21 06:59:16;;;;;;;5.47;2.13;;;;;;;;;;5001473;28;20081;-72
2023/05/21 07:01:43;;;;;;;5.70;2.33;;;;;;;;;;5003215;28;20049;-73
2023/05/21 07:04:09;;;;;;;4.63;2.33;;;;;;;;;;5000920;28;20504;-71
2023/05/21 07:06:36;;;;;;;10.65;2.65;;;;;;;;;;4988334;28;20041;-71
2023/05/21 07:09:03;;;;;;;4.80;1.83;;;19.50;84.70;;;;;;5007976;28;20045;-70
2023/05/21 07:11:29;;;;;;;4.50;2.40;;;;;;;;;;5002005;28;20052;-70
2023/05/21 07:13:59;;;;;;;6.75;2.55;;;19.70;83.60;;;;;;5007374;28;20140;-73
2023/05/21 07:16:25;;;;;;;7.10;2.50;;;;;;;;;;5009721;28;20049;-72
2023/05/21 07:18:51;;;;;;;6.47;2.42;;;;;;;;;;4985816;28;20092;-73
2023/05/21 07:21:17;;;;;;;9.63;2.83;;;;;;;;;;5005033;28;20095;-69
2023/05/21 07:23:43;;;;;;;7.22;2.45;;;;;;;;;;5010819;28;20049;-71
2023/05/21 07:26:10;;;;;;;7.75;3.05;;;;;;;;;;5011643;28;20089;-71
2023/05/21 07:28:36;;;;;;;5.97;2.47;;;;;;;;;;5011306;28;20156;-68
2023/05/21 07:31:02;;;;;;;5.18;2.05;;;;;;;;;;5011490;28;20061;-72
2023/05/21 07:33:28;;;;;;;4.50;2.20;;;;;;;;;;5012487;28;20180;-71
2023/05/21 07:35:54;;;;;;;6.38;2.75;;;;;;;;;;4992511;28;20047;-71
2023/05/21 07:38:20;;;;;;;7.25;2.88;;;;;;;;;;5003909;28;20045;-69
2023/05/21 07:40:46;;;;;;;3.58;2.13;;;;;;;;;;4994598;28;20056;-73
2023/05/21 07:43:13;;;;;;;4.82;1.85;;;;;;;;;;5007606;28;20052;-71
2023/05/21 07:45:39;;;;;;;3.30;2.30;;;;;;;;;;5009021;28;20050;-68
2023/05/21 07:48:05;;;;;;;7.75;2.72;;;;;;;;;;5003602;28;20054;-70
2023/05/21 07:50:31;;;;;;;11.75;2.67;;;;;;;;;;5007672;28;20056;-71
2023/05/21 07:52:57;;;;;;;5.05;2.60;;;;;;;;;;4987688;28;20056;-70
2023/05/21 07:55:23;;;;;;;8.20;2.15;;;;;;;;;;4993414;28;20045;-69
2023/05/21 07:57:51;;;;;;;5.80;1.90;;;;;;;;;;5004846;28;20156;-70
2023/05/21 08:00:17;;;;;;;5.57;2.35;;;;;;;;;;5006726;28;20345;-69
2023/05/21 08:02:44;;;;;;;5.40;2.40;;;;;;;;;;5011197;28;20046;-69
2023/05/21 08:05:10;;;;;;;8.82;2.38;;;;;;;;;;4997841;28;20103;-70
2023/05/21 08:07:36;;;;;;;5.20;2.20;;;;;;;;;;5006876;28;20190;-72
2023/05/21 08:10:03;;;;;;;7.30;2.20;;;21.20;81.00;;;;;;5007146;28;20118;-69
2023/05/21 08:12:29;;;;;;;7.30;2.58;;;;;;;;;;5011156;28;20052;-71
2023/05/21 08:14:57;;;;;;;5.38;2.20;;;21.40;76.30;;;;;;5003032;28;20407;-70
2023/05/21 08:17:23;;;;;;;7.20;2.22;;;;;;;;;;4991958;28;20132;-72
2023/05/21 08:19:49;;;;;;;7.35;2.38;;;;;;;;;;5008482;28;20773;-68
2023/05/21 08:22:15;;;;;;;6.97;2.17;;;;;;;;;;5007843;28;20141;-72
2023/05/21 08:24:41;;;;;;;5.10;1.92;;;;;;;;;;5008630;28;20050;-74
2023/05/21 08:27:07;;;;;;;3.80;1.75;;;;;;;;;;5010368;28;20156;-71
2023/05/21 08:29:34;;;;;;;4.72;2.08;;;;;;;;;;4982624;28;20088;-70
2023/05/21 08:32:00;;;;;;;5.20;2.17;;;;;;;;;;5009811;28;20722;-68
2023/05/21 08:34:26;;;;;;;5.25;2.30;;;;;;;;;;4992832;28;20049;-72
2023/05/21 08:36:52;;;;;;;5.85;2.08;;;;;;;;;;5005021;28;20073;-71
2023/05/21 08:39:19;;;;;;;5.45;2.28;;;;;;;;;;5009561;28;20136;-70
2023/05/21 08:41:48;;;;;;;5.75;2.50;;;;;;;;;;4994481;28;20057;-72
2023/05/21 08:44:19;;;;;;;4.88;1.70;;;22.00;73.10;;;;;;5010593;28;20065;-71
2023/05/21 08:46:49;;;;;;;6.32;2.45;;;22.10;72.80;;;;;;4995129;28;20320;-69
2023/05/21 08:49:17;;;;;;;7.18;2.47;;;22.20;72.20;;;;;;5008494;28;20046;-71
2023/05/21 08:51:44;;;;;;;4.70;2.08;;;;;;;;;;5010496;28;20088;-72
2023/05/21 08:54:12;;;;;;;5.47;2.35;;;22.50;71.80;;;;;;5007797;28;20050;-76
2023/05/21 08:56:44;;;;;;;3.80;1.55;;;22.50;72.00;;;;;;4995743;28;20052;-71
2023/05/21 08:59:11;;;;;;;4.15;1.70;;;22.50;71.90;;;;;;5014089;28;20099;-72
2023/05/21 09:01:41;;;;;;;4.13;1.60;;;22.00;71.80;;;;;;4997813;28;20056;-75
2023/05/21 09:04:07;;;;;;;6.93;2.30;;;22.80;71.50;;;;;;5010059;28;20064;-71
2023/05/21 09:06:33;;;;;;;5.15;2.20;;;;;;;;;;4997493;28;20688;-71
2023/05/21 09:09:09;;;;;;;6.47;2.33;;;23.20;70.90;;;;;;5006748;28;20060;-72
2023/05/21 09:11:35;;;;;;;7.35;2.10;;;;;;;;;;5013449;28;20049;-70
2023/05/21 09:14:02;;;;;;;7.50;2.55;;;;;;;;;;5008780;28;20053;-72
2023/05/21 09:16:28;;;;;;;6.22;2.53;;;;;;;;;;5014162;28;20049;-73
2023/05/21 09:18:54;;;;;;;4.03;2.33;;;;;;;;;;5013633;28;20765;-72
2023/05/21 09:21:24;;;;;;;6.30;2.40;;;24.30;67.20;;;;;;5014157;28;20148;-73
2023/05/21 09:23:55;;;;;;;6.88;2.20;;;24.50;66.80;;;;;;5009579;28;20068;-71
2023/05/21 09:26:23;;;;;;;5.18;2.70;;;25.00;67.20;;;;;;5008976;28;20052;-71
2023/05/21 09:28:50;;;;;;;4.10;1.98;;;;;;;;;;4997071;28;20150;-75
2023/05/21 09:31:16;;;;;;;5.38;2.42;;;;;;;;;;5013399;28;20050;-74
2023/05/21 09:33:48;;;;;;;9.20;3.25;;;25.80;65.40;;;;;;5008506;28;20094;-74
2023/05/21 09:36:14;;;;;;;5.30;1.98;;;;;;;;;;5001461;28;20050;-74
2023/05/21 09:38:40;;;;;;;5.53;1.58;;;26.70;64.60;;;;;;4991298;28;20038;-71
2023/05/21 09:41:06;;;;;;;5.80;2.55;;;;;;;;;;4992381;28;20739;-73
2023/05/21 09:43:32;;;;;;;4.63;2.50;;;;;;;;;;4993662;28;20041;-70
2023/05/21 09:45:59;;;;;;;5.97;2.50;;;26.70;62.70;;;;;;5005698;28;20049;-73
2023/05/21 09:48:34;;;;;;;7.50;2.40;;;26.90;62.40;;;;;;5002056;28;20085;-72
2023/05/21 09:51:09;;;;;;;4.32;2.30;;;27.20;62.10;;;;;;5001250;28;20054;-70
2023/05/21 09:53:36;;;;;;;5.18;1.83;;;;;;;;;;5012262;28;20046;-73
2023/05/21 09:56:02;;;;;;;3.75;1.92;;;25.20;60.30;;;;;;5008118;28;20268;-70
2023/05/21 09:58:28;;;;;;;5.20;2.60;;;27.60;64.10;;;;;;5002677;28;20060;-70
2023/05/21 10:00:54;;;;;;;5.82;2.47;;;;;;;;;;5004357;28;20758;-73
2023/05/21 10:03:25;;;;;;;5.50;2.70;;;27.90;61.00;;;;;;5004343;28;20045;-71
2023/05/21 10:05:52;;;;;;;6.47;2.10;;;28.10;61.10;;;;;;5000935;28;20042;-72
2023/05/21 10:08:22;;;;;;;7.45;3.10;;;28.20;60.40;;;;;;5006396;28;20557;-71
2023/05/21 10:10:49;;;;;;;4.03;2.45;;;28.10;60.10;;;;;;5003896;28;20313;-74
2023/05/21 10:13:20;;;;;;;8.13;3.03;;;28.00;59.80;;;;;;4990747;28;20054;-75
2023/05/21 10:15:51;;;;;;;;;;;28.10;60.30;;;;;;5003158;28;20722;-74
2023/05/21 10:18:18;;;;;;;6.60;3.50;;;;;;;;;;5012479;28;20047;-73
2023/05/21 10:20:45;;;;;;;5.22;3.15;;;27.30;60.10;;;;;;4992547;28;20048;-74
2023/05/21 10:23:11;;;;;;;8.73;4.00;;;26.80;59.90;;;;;;5008189;28;20053;-73
2023/05/21 10:25:38;;;;;;;5.13;3.35;;;26.40;60.50;;;;;;5002911;28;20057;-71
2023/05/21 10:28:06;;;;;;;5.40;2.97;;;25.70;61.00;;;;;;4996742;28;20053;-72
2023/05/21 10:30:33;;;;;;;7.18;3.85;;;21.70;59.40;;;;;;5012881;28;20069;-71
2023/05/21 10:33:01;;;;;;;6.60;4.70;;;24.80;62.10;;;;;;5012035;28;20042;-71
2023/05/21 10:35:28;;;;;;;8.73;4.90;;;24.40;63.60;;;;;;4979809;28;20119;-73
2023/05/21 10:37:56;;;;;;;7.72;3.88;;;24.10;64.20;;;;;;4996372;28;20045;-72
2023/05/21 10:40:22;;;;;;;10.20;4.68;;;;;;;;;;4988470;28;20048;-78
2023/05/21 10:42:51;;;;;;;8.45;4.28;;;24.20;65.40;;;;;;5008118;28;20045;-73
2023/05/21 10:45:41;;;;;;;8.15;4.55;;;24.30;65.00;;;;;;5003985;28;20049;-73
2023/05/21 10:48:25;;;;;;;7.75;4.65;;;23.70;65.10;;;;;;5011611;28;20789;-72
2023/05/21 10:50:51;;;;;;;9.10;4.88;;;;;;;;;;4994912;28;20545;-74
2023/05/21 10:54:01;;;;;;;10.25;6.07;;;24.00;66.10;;;;;;5012535;28;20816;-70
2023/05/21 10:56:27;;;;;;;9.60;5.82;;;;;;;;;;5012519;28;20119;-69
2023/05/21 10:59:38;;;;;;;9.80;6.07;;;23.90;66.80;;;;;;5009392;28;20138;-71
2023/05/21 11:02:06;;;;;;;8.10;5.03;;;24.00;67.60;;;;;;4977573;28;20065;-72
2023/05/21 11:04:33;;;;;;;10.45;6.88;;;;;;;;;;4995597;28;20053;-72
2023/05/21 11:07:00;;;;;;;9.55;6.72;;;;;;;;;;5006270;28;20056;-72
2023/05/21 11:09:26;;;;;;;10.73;7.75;;;;;;;;;;5012166;28;20050;-74
2023/05/21 11:11:57;;;;;;;15.82;9.13;;;23.40;65.60;;;;;;4993249;28;20098;-72
2023/05/21 11:14:37;;;;;;;11.43;8.05;;;23.90;66.30;;;;;;5007183;28;20120;-71
2023/05/21 11:17:15;;;;;;;10.88;7.55;;;23.90;67.20;;;;;;4995243;28;20056;-72
2023/05/21 11:19:50;;;;;;;12.52;7.30;;;23.90;68.00;;;;;;5004502;28;20057;-71
2023/05/21 11:22:22;;;;;;;11.93;7.68;;;24.00;67.90;;;;;;5009021;28;20136;-74
2023/05/21 11:24:49;;;;;;;10.27;7.60;;;23.70;68.10;;;;;;5007547;28;20053;-72
2023/05/21 11:27:36;;;;;;;13.27;8.88;;;22.30;67.10;;;;;;5008988;28;20127;-72
2023/05/21 11:30:07;;;;;;;9.15;6.75;;;23.70;68.20;;;;;;5004909;28;20217;-71
2023/05/21 11:33:00;;;;;;;10.82;7.82;;;23.80;69.00;;;;;;5011526;28;20053;-73
2023/05/21 11:35:26;;;;;;;15.98;9.02;;;23.60;68.70;;;;;;5003307;28;20445;-69
2023/05/21 11:37:55;;;;;;;12.30;9.25;;;23.80;69.20;;;;;;4985887;28;20674;-75
2023/05/21 11:40:26;;;;;;;14.85;10.30;;;23.70;68.80;;;;;;5012375;28;20067;-71
2023/05/21 11:42:53;;;;;;;12.85;8.57;;;23.80;69.30;;;;;;5008218;28;20080;-73
2023/05/21 11:45:21;;;;;;;14.45;11.05;;;23.80;68.90;;;;;;5007711;28;20498;-72
2023/05/21 11:47:51;;;;;;;12.43;8.63;;;23.80;69.30;;;;;;5011344;28;20053;-73
2023/05/21 11:50:17;;;;;;;13.27;8.15;;;23.90;70.10;;;;;;4995409;28;20055;-73
2023/05/21 11:52:44;;;;;;;12.30;9.30;;;23.60;70.80;;;;;;5013207;28;20128;-70
2023/05/21 11:55:10;;;;;;;13.45;9.70;;;;;;;;;;5011332;28;20112;-76
2023/05/21 11:57:40;;;;;;;14.65;10.40;;;23.70;69.40;;;;;;5011763;28;20056;-71
2023/05/21 12:00:12;;;;;;;15.70;11.85;;;;;;;;;;5012465;28;20049;-71
2023/05/21 12:02:39;;;;;;;14.38;10.93;;;;;;;;;;5012110;28;20050;-74
2023/05/21 12:05:05;;;;;;;15.93;11.07;;;23.20;71.40;;;;;;5011909;28;20427;-72
2023/05/21 12:07:31;;;;;;;13.75;10.73;;;;;;;;;;5008638;28;20057;-71
2023/05/21 12:09:57;;;;;;;14.85;10.38;;;22.40;72.20;;;;;;5011694;28;20050;-71
2023/05/21 12:12:26;;;;;;;15.57;9.75;;;22.60;73.10;;;;;;4985499;28;20046;-71
2023/05/21 12:14:54;;;;;;;16.45;11.30;;;22.60;72.70;;;;;;5006463;28;20053;-73
2023/05/21 12:17:21;;;;;;;14.27;10.98;;;22.30;74.80;;;;;;5007217;28;20273;-70
2023/05/21 12:19:50;;;;;;;16.70;10.30;;;22.60;73.30;;;;;;4998792;28;20702;-72
2023/05/21 12:22:16;;;;;;;14.18;9.70;;;;;;;;;;4988187;28;20064;-71
2023/05/21 12:24:43;;;;;;;14.13;10.05;;;;;;;;;;5009691;28;20100;-68
2023/05/21 12:27:11;;;;;;;14.65;10.50;;;;;;;;;;5010113;28;20438;-72
2023/05/21 12:29:40;;;;;;;14.30;10.25;;;22.70;74.00;;;;;;5012913;28;20069;-72
2023/05/21 12:32:08;;;;;;;17.15;11.75;;;23.80;74.10;;;;;;5004061;28;20064;-72
2023/05/21 12:34:46;;;;;;;22.35;11.52;;;22.70;72.60;;;;;;5001658;28;20592;-76
2023/05/21 12:37:14;;;;;;;14.52;10.63;;;22.50;73.20;;;;;;4990144;28;20125;-71
2023/05/21 12:39:43;;;;;;;15.32;10.75;;;22.40;73.90;;;;;;5012962;28;20057;-73
2023/05/21 12:42:09;;;;;;;13.73;10.25;;;;;;;;;;5011113;28;20057;-71
2023/05/21 12:44:35;;;;;;;19.45;11.77;;;;;;;;;;4982536;28;20095;-72
2023/05/21 12:47:02;;;;;;;12.50;9.82;;;;;;;;;;5008811;28;20141;-72
2023/05/21 12:49:39;;;;;;;15.95;10.80;;;22.60;74.20;;;;;;5005458;28;20061;-72
2023/05/21 12:52:08;;;;;;;20.60;13.60;;;22.60;74.00;;;;;;4999863;28;20045;-73
2023/05/21 12:54:34;;;;;;;16.08;12.10;;;;;;;;;;5015264;28;20056;-71
2023/05/21 12:57:17;;;;;;;16.33;11.80;;;22.50;74.50;;;;;;4993433;28;20409;-73
2023/05/21 12:59:59;;;;;;;23.95;12.85;;;22.50;75.30;;;;;;5013831;28;20042;-73
2023/05/21 13:02:27;;;;;;;16.15;11.90;;;22.60;75.50;;;;;;5014385;28;20057;-73
2023/05/21 13:05:00;;;;;;;17.77;14.40;;;22.50;74.80;;;;;;5003788;28;20045;-70
2023/05/21 13:07:27;;;;;;;18.88;14.70;;;22.50;74.80;;;;;;5014632;28;20049;-71
2023/05/21 13:09:54;;;;;;;18.58;13.23;;;22.50;75.60;;;;;;5014395;28;20049;-70
2023/05/21 13:12:22;;;;;;;20.73;14.38;;;22.40;75.10;;;;;;4993813;28;20096;-73
2023/05/21 13:14:52;;;;;;;18.08;15.57;;;22.40;75.60;;;;;;5012894;28;20131;-72
2023/05/21 13:17:19;;;;;;;18.90;13.98;;;22.30;75.90;;;;;;5014639;28;20079;-72
2023/05/21 13:20:13;;;;;;;17.92;13.20;;;22.30;76.20;;;;;;5014135;28;20053;-72
2023/05/21 13:22:41;;;;;;;20.98;15.45;;;22.40;76.30;;;;;;5013992;28;20053;-70
2023/05/21 13:25:08;;;;;;;19.13;15.32;;;22.50;75.90;;;;;;4992114;28;20053;-72
2023/05/21 13:27:34;;;;;;;21.60;15.52;;;;;;;;;;5005504;28;20463;-71
2023/05/21 13:30:01;;;;;;;20.08;15.13;;;;;;;;;;4986589;28;20484;-69
2023/05/21 13:32:27;;;;;;;19.90;14.68;;;;;;;;;;4998007;28;20161;-71
2023/05/21 13:34:53;;;;;;;17.15;14.10;;;;;;;;;;5005449;28;20081;-70
2023/05/21 13:37:19;;;;;;;21.13;14.02;;;;;;;;;;4994040;28;20233;-70
2023/05/21 13:39:46;;;;;;;21.00;16.33;;;;;;;;;;4996290;28;20517;-71
2023/05/21 13:42:12;;;;;;;21.67;15.32;;;;;;;;;;4999292;28;20080;-69
2023/05/21 13:44:38;;;;;;;22.00;16.42;;;;;;;;;;5014378;28;20042;-69
2023/05/21 13:47:05;;;;;;;22.23;15.23;;;22.40;77.50;;;;;;4995903;28;20053;-71
2023/05/21 13:49:32;;;;;;;18.85;14.70;;;;;;;;;;5003311;28;20045;-73
2023/05/21 13:51:59;;;;;;;18.83;13.55;;;;;;;;;;5006563;28;20494;-71
2023/05/21 13:54:26;;;;;;;19.13;14.63;;;22.50;78.30;;;;;;4997807;28;20600;-69
2023/05/21 13:56:52;;;;;;;21.30;14.68;;;;;;;;;;5012046;28;20132;-72
2023/05/21 13:59:19;;;;;;;20.25;16.10;;;;;;;;;;5007311;28;20049;-70
2023/05/21 14:01:46;;;;;;;21.02;15.60;;;;;;;;;;4993875;28;20484;-70
2023/05/21 14:04:13;;;;;;;22.50;15.77;;;;;;;;;;4982339;28;20243;-70